Time;durP1;ratioP1;P1;durP2;ratioP2;P2;SDS_P1;SDS_P2;PMS_P1;PMS_P2;Temp;Humidity;BMP_temperature;BMP_pressure;BME280_temperature;BME280_humidity;BME280_pressure;Samples;Min_cycle;Max_cycle;Signal;HPM_P1;HPM_P2
2021/06/24 06:15:27;;;;;;;11.13;4.78;;;18.60;99.90;;;;;;4403941;23;20019;-89
2021/06/24 06:17:57;;;;;;;19.27;5.10;;;18.70;99.90;;;;;;1273817;23;20241;-83
2021/06/24 06:20:38;;;;;;;9.98;5.28;;;18.70;99.90;;;;;;3728720;23;20059;-86
2021/06/24 06:23:08;;;;;;;7.78;4.47;;;18.80;99.90;;;;;;3599281;23;20054;-86
2021/06/24 06:26:02;;;;;;;11.93;4.78;;;18.70;99.90;;;;;;1571719;23;21538;-93
2021/06/24 06:28:32;;;;;;;11.40;4.72;;;18.70;99.90;;;;;;1213333;23;21355;31
2021/06/24 06:57:43;;;;;;;13.88;6.30;;;20.40;99.90;;;;;;1630965;23;20254;-88
2021/06/24 07:03:03;;;;;;;19.02;5.75;;;20.60;99.90;;;;;;3563485;40;20030;-81
2021/06/24 07:14:05;;;;;;;12.05;5.03;;;20.70;99.90;;;;;;1319951;23;20176;-94
2021/06/24 07:59:37;;;;;;;14.90;6.30;;;20.80;99.90;;;;;;3562499;40;20042;-79
2021/06/24 08:02:06;;;;;;;10.52;5.38;;;21.10;99.90;;;;;;3546233;40;20026;-79
2021/06/24 08:04:40;;;;;;;9.55;5.53;;;21.30;99.90;;;;;;3547337;40;20022;-79
2021/06/24 08:15:53;;;;;;;9.60;4.50;;;21.50;99.10;;;;;;2100428;23;21409;-94
2021/06/24 08:21:58;;;;;;;15.02;5.57;;;21.40;99.50;;;;;;558479;50;20279;-86
2021/06/24 08:35:51;;;;;;;16.13;6.30;;;20.80;99.90;;;;;;3562521;40;20049;-80
2021/06/24 08:38:22;;;;;;;12.25;6.53;;;20.90;99.90;;;;;;3546851;40;20028;-79
2021/06/24 08:46:26;;;;;;;10.07;5.60;;;21.20;99.40;;;;;;3562034;40;20034;-89
2021/06/24 08:49:04;;;;;;;15.50;5.53;;;21.30;99.40;;;;;;3707160;23;20081;-83
2021/06/24 08:51:58;;;;;;;12.98;6.05;;;21.50;99.00;;;;;;3684239;23;20074;-88
2021/06/24 08:54:56;;;;;;;11.95;5.65;;;21.80;98.80;;;;;;3787531;23;20477;-93
2021/06/24 08:57:54;;;;;;;23.67;13.23;;;22.20;98.10;;;;;;3693911;23;20058;-85
2021/06/24 09:03:33;;;;;;;10.45;4.78;;;23.00;96.20;;;;;;3690197;23;20046;-82
2021/06/24 09:06:36;;;;;;;10.80;4.55;;;23.30;95.10;;;;;;3684672;23;20368;-81
2021/06/24 09:09:06;;;;;;;12.15;5.32;;;23.50;93.90;;;;;;3659683;23;20404;-82
2021/06/24 09:11:39;;;;;;;11.45;5.00;;;23.60;93.10;;;;;;3817549;23;20066;-88
2021/06/24 09:14:41;;;;;;;13.65;4.80;;;23.60;92.90;;;;;;1425748;23;20177;-92
2021/06/24 09:26:11;;;;;;;9.27;4.53;;;23.50;92.30;;;;;;2805251;23;20037;-79
2021/06/24 09:34:28;;;;;;;19.65;5.03;;;23.70;91.70;;;;;;1279512;23;20188;-83
2021/06/24 09:42:43;;;;;;;20.30;8.50;;;24.10;91.00;;;;;;1313384;23;21397;-90
2021/06/24 09:51:34;;;;;;;11.20;5.32;;;24.70;89.50;;;;;;3572554;40;20050;-82
2021/06/24 10:01:11;;;;;;;9.40;4.78;;;25.80;85.20;;;;;;3664566;23;20817;-91
2021/06/24 10:03:39;;;;;;;7.43;4.30;;;25.80;82.70;;;;;;3620601;23;20031;-80
2021/06/24 10:06:07;;;;;;;11.18;5.32;;;25.60;83.60;;;;;;3632296;23;20042;-80
2021/06/24 10:09:01;;;;;;;9.63;3.72;;;25.40;83.30;;;;;;3693892;23;20880;-88
2021/06/24 10:11:54;;;;;;;9.93;4.00;;;25.10;83.30;;;;;;1390927;23;21426;-90
2021/06/24 10:23:00;;;;;;;12.10;4.45;;;24.80;83.00;;;;;;1284049;23;20187;-84
2021/06/24 10:25:57;;;;;;;14.07;4.20;;;24.80;83.10;;;;;;1200640;23;20938;-87
2021/06/24 10:29:06;;;;;;;9.23;4.07;;;24.70;83.00;;;;;;3679863;23;20199;-88
2021/06/24 10:37:05;;;;;;;9.50;3.80;;;25.00;80.50;;;;;;1224179;22;20264;-83
2021/06/24 10:39:36;;;;;;;12.65;4.13;;;24.90;81.70;;;;;;3683349;22;20412;-86
2021/06/24 10:45:02;;;;;;;9.32;3.83;;;25.20;81.10;;;;;;3682493;22;20060;-87
2021/06/24 10:47:46;;;;;;;10.77;4.57;;;25.70;80.10;;;;;;3393699;22;20237;-88
2021/06/24 11:05:18;;;;;;;32.65;5.43;;;26.70;73.60;;;;;;1368957;23;20198;-85
2021/06/24 11:22:52;;;;;;;10.60;3.67;;;26.30;75.50;;;;;;3630657;39;20023;-80
2021/06/24 11:25:22;;;;;;;11.88;4.20;;;26.90;74.10;;;;;;3665169;23;20075;-86
2021/06/24 11:27:50;;;;;;;10.90;6.75;;;27.20;72.40;;;;;;3615143;39;20039;-85
2021/06/24 11:30:57;;;;;;;14.10;5.10;;;27.40;71.70;;;;;;3643488;22;20076;-85
2021/06/24 11:33:27;;;;;;;7.82;4.72;;;27.50;71.70;;;;;;3594610;39;20056;-85
2021/06/24 11:36:11;;;;;;;8.02;3.50;;;27.70;70.30;;;;;;3611795;39;20047;-86
2021/06/24 11:38:47;;;;;;;10.57;3.92;;;27.70;69.50;;;;;;3595577;40;20024;-85
2021/06/24 11:41:24;;;;;;;6.63;3.30;;;27.90;69.50;;;;;;3649726;23;20031;-87
2021/06/24 11:44:03;;;;;;;21.95;4.90;;;27.90;69.60;;;;;;3653855;22;20128;-86
2021/06/24 11:46:34;;;;;;;8.75;3.97;;;28.00;69.20;;;;;;3595365;40;20063;-86
2021/06/24 12:00:55;;;;;;;10.27;4.18;;;27.20;70.10;;;;;;2255127;23;20179;-78
2021/06/24 12:06:20;;;;;;;9.02;3.72;;;27.20;70.20;;;;;;3739855;22;20847;-81
2021/06/24 12:09:01;;;;;;;9.60;4.55;;;27.00;70.20;;;;;;3739057;22;20031;-86
2021/06/24 12:11:35;;;;;;;11.32;4.70;;;26.70;71.30;;;;;;3655154;23;20050;-86
2021/06/24 12:25:37;;;;;;;7.70;3.70;;;25.60;74.30;;;;;;3657577;22;20024;-85
2021/06/24 12:28:32;;;;;;;11.27;4.57;;;25.60;74.30;;;;;;3746223;22;20119;-90
2021/06/24 12:31:17;;;;;;;16.27;5.30;;;25.70;74.30;;;;;;3829760;22;20050;-86
2021/06/24 12:34:18;;;;;;;16.30;5.07;;;25.50;74.30;;;;;;3889177;22;22681;-83
2021/06/24 12:36:49;;;;;;;7.95;4.20;;;25.30;75.30;;;;;;3116419;22;20044;-92
2021/06/24 12:39:21;;;;;;;9.35;4.55;;;25.20;75.50;;;;;;3868843;22;20072;-90
2021/06/24 12:41:55;;;;;;;11.20;4.50;;;25.10;75.50;;;;;;3316996;23;20280;-85
2021/06/24 12:44:51;;;;;;;15.95;3.97;;;25.20;74.90;;;;;;3743822;22;20093;-86
2021/06/24 12:47:34;;;;;;;11.27;4.88;;;25.20;75.20;;;;;;3602400;39;20391;-86
2021/06/24 12:53:01;;;;;;;9.18;4.32;;;25.50;74.30;;;;;;3632093;39;20035;-86
2021/06/24 12:55:47;;;;;;;10.40;4.50;;;25.60;74.60;;;;;;3623282;39;20077;-85
2021/06/24 12:58:18;;;;;;;10.02;3.95;;;25.60;74.50;;;;;;3622073;39;20468;-86
2021/06/24 13:00:58;;;;;;;7.10;4.15;;;25.40;74.40;;;;;;3615787;39;20435;-85
2021/06/24 13:03:41;;;;;;;9.05;3.85;;;25.20;75.20;;;;;;3624034;39;20027;-86
2021/06/24 13:06:14;;;;;;;8.60;4.18;;;24.90;76.40;;;;;;3609666;39;20042;-84
2021/06/24 13:09:04;;;;;;;10.88;4.20;;;24.70;77.30;;;;;;3594931;39;20043;-88
2021/06/24 13:11:35;;;;;;;8.70;4.10;;;24.50;77.60;;;;;;3616319;39;20054;-86
2021/06/24 13:14:15;;;;;;;10.40;4.55;;;24.30;78.20;;;;;;3611983;39;20079;-85
2021/06/24 13:16:49;;;;;;;7.65;4.00;;;24.10;78.70;;;;;;3607914;39;20035;-86
2021/06/24 13:19:24;;;;;;;9.40;3.58;;;24.10;79.40;;;;;;3613811;39;20056;-87
2021/06/24 13:21:57;;;;;;;8.85;4.18;;;24.00;79.60;;;;;;3591294;40;20377;-86
2021/06/24 13:24:27;;;;;;;5.88;4.05;;;23.90;79.90;;;;;;3606779;40;20116;-85
2021/06/24 13:27:08;;;;;;;8.98;4.60;;;23.70;80.30;;;;;;3591723;40;20088;-87
2021/06/24 13:29:39;;;;;;;9.32;4.45;;;23.60;81.00;;;;;;3581747;40;20080;-82
2021/06/24 13:32:09;;;;;;;6.85;4.00;;;23.50;81.60;;;;;;3587496;40;20055;-83
2021/06/24 13:34:41;;;;;;;9.85;4.30;;;23.40;82.20;;;;;;3582184;40;20076;-83
2021/06/24 13:37:12;;;;;;;;;;;23.20;82.30;;;;;;3583961;40;20065;-86
2021/06/24 13:39:42;;;;;;;9.23;3.85;;;23.10;82.90;;;;;;3595435;40;20081;-85
2021/06/24 13:42:11;;;;;;;10.85;3.90;;;23.00;83.30;;;;;;3588584;40;20096;-84
2021/06/24 13:44:41;;;;;;;10.73;4.35;;;22.90;83.50;;;;;;3573787;40;20072;-85
2021/06/24 13:47:12;;;;;;;9.50;3.78;;;22.80;83.60;;;;;;3590197;40;20099;-85
2021/06/24 13:49:40;;;;;;;9.50;3.47;;;22.60;83.40;;;;;;3589406;40;20059;-84
2021/06/24 13:52:12;;;;;;;7.70;3.50;;;22.60;83.70;;;;;;3579085;40;20345;-83
2021/06/24 13:54:40;;;;;;;5.70;3.13;;;22.40;83.70;;;;;;3594903;39;20294;-86
2021/06/24 13:57:09;;;;;;;7.70;3.15;;;22.30;84.10;;;;;;3589625;40;20057;-85
2021/06/24 13:59:36;;;;;;;8.52;3.22;;;22.30;84.20;;;;;;3594043;39;20091;-85
2021/06/24 14:02:06;;;;;;;7.45;3.38;;;22.20;83.90;;;;;;3603896;39;20084;-86
2021/06/24 14:04:35;;;;;;;5.47;3.33;;;22.30;83.30;;;;;;3613155;39;20060;-86
2021/06/24 14:07:06;;;;;;;6.90;3.30;;;22.40;83.00;;;;;;3602895;39;20113;-84
2021/06/24 14:09:33;;;;;;;5.07;3.13;;;22.40;82.10;;;;;;3607268;39;20046;-86
2021/06/24 14:12:01;;;;;;;8.67;4.33;;;22.50;82.10;;;;;;3612719;39;20064;-86
2021/06/24 14:14:29;;;;;;;15.18;4.13;;;22.60;81.90;;;;;;3605291;39;20305;-83
2021/06/24 14:19:58;;;;;;;7.63;3.25;;;22.60;81.00;;;;;;3638158;39;20067;-85
2021/06/24 14:22:27;;;;;;;6.20;3.03;;;22.70;80.70;;;;;;3625414;39;20035;-87
2021/06/24 14:24:57;;;;;;;9.68;3.55;;;22.60;81.20;;;;;;3657749;22;20050;-84
2021/06/24 14:33:41;;;;;;;10.30;4.60;;;22.40;87.40;;;;;;3967368;22;20071;-89
2021/06/24 14:38:59;;;;;;;8.18;4.78;;;21.90;91.20;;;;;;1650066;22;20844;-92
2021/06/24 14:41:53;;;;;;;10.27;4.85;;;21.70;92.40;;;;;;1367234;22;21307;-89
2021/06/24 14:44:21;;;;;;;11.63;5.18;;;21.40;93.40;;;;;;3749957;23;20077;-82
2021/06/24 14:46:53;;;;;;;9.32;5.03;;;21.30;94.80;;;;;;3781072;23;20057;-85
2021/06/24 14:49:46;;;;;;;11.68;5.50;;;21.00;95.90;;;;;;3653250;22;20055;-85
2021/06/24 14:55:20;;;;;;;11.77;5.60;;;20.90;99.90;;;;;;3653816;23;20064;-94
2021/06/24 15:00:38;;;;;;;12.13;6.05;;;20.30;99.90;;;;;;1395087;22;20184;-84
2021/06/24 15:03:21;;;;;;;11.65;6.00;;;20.10;99.90;;;;;;1399907;22;21574;-83
2021/06/24 15:05:56;;;;;;;9.65;6.28;;;20.00;99.90;;;;;;3787733;22;20080;-87
2021/06/24 15:08:26;;;;;;;13.90;7.05;;;20.00;99.90;;;;;;3713934;22;20314;-87
2021/06/24 15:10:56;;;;;;;13.10;6.68;;;20.00;99.90;;;;;;3750947;22;20087;-90
2021/06/24 15:13:28;;;;;;;11.43;6.57;;;20.00;99.90;;;;;;3735338;22;20064;-90
2021/06/24 15:15:59;;;;;;;11.40;6.65;;;20.00;99.90;;;;;;3732087;22;20032;31
2021/06/24 15:18:29;;;;;;;11.13;7.18;;;20.00;99.90;;;;;;3743848;22;20082;-88
2021/06/24 15:23:52;;;;;;;11.98;7.85;;;20.00;99.90;;;;;;3629699;39;20082;-85
2021/06/24 15:26:21;;;;;;;12.10;7.00;;;20.10;99.90;;;;;;3666112;23;20036;-77
2021/06/24 15:43:54;;;;;;;11.20;7.10;;;20.70;99.90;;;;;;1145685;22;20225;-81
2021/06/24 15:46:25;;;;;;;13.45;6.78;;;20.70;99.90;;;;;;1182400;22;20164;-78
2021/06/24 15:54:34;;;;;;;10.50;5.88;;;20.80;99.90;;;;;;1223031;22;20296;-86
2021/06/24 15:57:02;;;;;;;13.40;6.22;;;20.80;99.90;;;;;;3588984;40;20099;-86
2021/06/24 16:05:05;;;;;;;12.60;6.85;;;20.40;99.90;;;;;;3701845;22;20051;-86
2021/06/24 16:07:33;;;;;;;9.60;6.90;;;20.20;99.90;;;;;;3609608;39;20061;-85
2021/06/24 16:10:01;;;;;;;13.57;5.85;;;20.10;99.90;;;;;;3597645;39;20084;-87
2021/06/24 16:12:31;;;;;;;13.68;7.10;;;20.10;99.90;;;;;;3604712;39;20079;-87
2021/06/24 16:14:59;;;;;;;12.45;6.82;;;20.10;99.90;;;;;;3595957;39;20083;-85
2021/06/24 16:17:26;;;;;;;13.63;7.95;;;19.90;99.90;;;;;;3589869;39;20375;-85
2021/06/24 16:19:54;;;;;;;13.33;7.67;;;19.90;99.90;;;;;;3601047;39;20366;-86
2021/06/24 16:22:24;;;;;;;12.05;6.57;;;19.80;99.90;;;;;;3597241;39;20080;-87
2021/06/24 16:24:54;;;;;;;15.30;7.50;;;19.60;99.90;;;;;;3592278;39;20072;-83
2021/06/24 16:27:22;;;;;;;11.67;7.90;;;19.50;99.90;;;;;;3621232;39;20055;-84
2021/06/24 16:29:52;;;;;;;10.60;7.40;;;19.40;99.90;;;;;;3603418;39;20066;-86
2021/06/24 16:32:20;;;;;;;10.73;6.27;;;19.30;99.90;;;;;;3610138;39;20056;-85
2021/06/24 16:34:48;;;;;;;13.65;7.28;;;19.20;99.90;;;;;;3595947;39;20094;-85
2021/06/24 16:37:18;;;;;;;10.80;7.07;;;19.20;99.90;;;;;;3595400;39;20064;-85
2021/06/24 16:39:48;;;;;;;11.18;6.72;;;19.20;99.90;;;;;;3591460;39;20067;-86
2021/06/24 16:42:18;;;;;;;12.75;6.45;;;19.20;99.90;;;;;;3592043;39;20072;-85
2021/06/24 16:44:49;;;;;;;13.10;6.03;;;19.30;99.90;;;;;;3595176;39;20072;-86
2021/06/24 16:47:16;;;;;;;11.43;7.23;;;19.30;99.90;;;;;;3601795;39;20398;-87
2021/06/24 16:49:45;;;;;;;11.33;7.47;;;19.30;99.90;;;;;;3602993;39;20068;-84
2021/06/24 16:52:17;;;;;;;15.30;7.57;;;19.30;99.90;;;;;;3591098;39;20064;-84
2021/06/24 16:54:48;;;;;;;15.82;8.45;;;19.30;99.90;;;;;;3589445;40;20092;-85
2021/06/24 16:57:17;;;;;;;15.10;8.40;;;19.40;99.90;;;;;;3600762;39;20112;-86
2021/06/24 16:59:44;;;;;;;15.23;8.10;;;19.40;99.90;;;;;;3589263;40;20087;-85
2021/06/24 17:02:12;;;;;;;12.00;8.33;;;19.30;99.90;;;;;;3587125;39;20305;-85
2021/06/24 17:04:46;;;;;;;14.95;8.75;;;19.10;99.90;;;;;;3598203;39;20067;-87
2021/06/24 17:07:14;;;;;;;16.52;8.70;;;19.10;99.90;;;;;;3591307;40;20080;-85
2021/06/24 17:09:43;;;;;;;11.43;8.13;;;18.90;99.90;;;;;;3602169;40;20072;-85
2021/06/24 17:12:17;;;;;;;11.80;8.38;;;18.80;99.90;;;;;;3600617;39;20064;-85
2021/06/24 17:14:47;;;;;;;14.07;9.32;;;18.80;99.90;;;;;;3582851;40;20076;-85
2021/06/24 17:17:14;;;;;;;16.50;8.60;;;18.80;99.90;;;;;;3583942;39;20073;-86
2021/06/24 17:19:44;;;;;;;22.63;9.70;;;18.70;99.90;;;;;;3592487;40;20076;-85
2021/06/24 17:22:13;;;;;;;11.73;7.88;;;18.70;99.90;;;;;;3602261;39;20088;-83
2021/06/24 17:24:42;;;;;;;17.88;10.70;;;18.70;99.90;;;;;;3595468;40;20087;-87
2021/06/24 17:27:11;;;;;;;14.50;9.52;;;18.80;99.90;;;;;;3593643;40;20083;-82
2021/06/24 17:29:43;;;;;;;17.15;9.80;;;18.90;99.90;;;;;;3591047;39;20084;-85
2021/06/24 17:32:12;;;;;;;16.70;10.30;;;18.90;99.90;;;;;;3588093;40;20160;-85
2021/06/24 17:34:40;;;;;;;17.83;9.90;;;19.00;99.90;;;;;;3581293;40;20032;-83
2021/06/24 17:37:11;;;;;;;16.08;9.68;;;19.00;99.90;;;;;;3583248;40;20084;-86
2021/06/24 17:39:39;;;;;;;17.58;8.95;;;19.10;99.90;;;;;;3589446;40;20081;-84
2021/06/24 17:42:13;;;;;;;15.80;9.93;;;19.10;99.90;;;;;;3580367;40;20069;-83
2021/06/24 17:44:43;;;;;;;12.95;9.45;;;19.20;99.90;;;;;;3602511;40;20041;-85
2021/06/24 17:47:11;;;;;;;17.73;9.05;;;19.20;99.90;;;;;;3603151;40;20032;-91
2021/06/24 17:49:39;;;;;;;12.15;7.90;;;19.20;99.90;;;;;;3605174;39;20043;-89
2021/06/24 17:52:08;;;;;;;19.58;9.02;;;19.20;99.90;;;;;;3602848;40;20318;-86
2021/06/24 17:54:36;;;;;;;10.52;7.55;;;19.30;99.90;;;;;;3594157;40;20367;-86
2021/06/24 17:59:49;;;;;;;13.38;7.72;;;19.30;99.90;;;;;;3620234;39;20032;-89
2021/06/24 18:02:17;;;;;;;13.48;8.60;;;19.30;99.90;;;;;;3597066;39;20064;-84
2021/06/24 18:04:49;;;;;;;14.30;7.63;;;19.30;99.90;;;;;;3600068;39;20214;-84
2021/06/24 18:07:21;;;;;;;12.35;7.40;;;19.20;99.90;;;;;;3598771;39;20071;-84
2021/06/24 18:09:49;;;;;;;14.13;7.40;;;19.20;99.90;;;;;;3599161;39;20071;-85
2021/06/24 18:12:18;;;;;;;12.75;7.50;;;19.20;99.90;;;;;;3601668;39;20067;-86
2021/06/24 18:14:48;;;;;;;11.45;7.35;;;19.20;99.90;;;;;;3602458;39;20082;-87
2021/06/24 18:17:16;;;;;;;14.65;8.15;;;19.30;99.90;;;;;;3601964;39;20087;-87
2021/06/24 18:19:45;;;;;;;12.77;7.65;;;19.20;99.90;;;;;;3593041;39;20071;-86
2021/06/24 18:22:13;;;;;;;15.45;8.57;;;19.10;99.90;;;;;;3601880;39;20095;-86
2021/06/24 18:24:41;;;;;;;13.37;8.40;;;19.10;99.90;;;;;;3604571;39;20067;-89
2021/06/24 18:27:09;;;;;;;13.90;7.30;;;19.00;99.90;;;;;;3593621;39;20329;-86
2021/06/24 18:29:39;;;;;;;10.82;6.97;;;18.90;99.90;;;;;;3606206;39;20072;-88
2021/06/24 18:32:11;;;;;;;12.70;7.35;;;18.80;99.90;;;;;;3598167;39;20084;-88
2021/06/24 18:34:40;;;;;;;10.90;6.65;;;18.70;99.90;;;;;;3597115;39;20068;-86
2021/06/24 18:37:08;;;;;;;12.48;7.13;;;18.60;99.90;;;;;;3598070;39;20076;-88
2021/06/24 18:39:37;;;;;;;11.85;6.70;;;18.60;99.90;;;;;;3611635;39;20083;-86
2021/06/24 18:42:09;;;;;;;13.65;8.80;;;18.50;99.90;;;;;;3605401;39;20061;-85
2021/06/24 18:44:37;;;;;;;12.90;8.63;;;18.50;99.90;;;;;;3599713;39;20083;-87
2021/06/24 18:47:08;;;;;;;15.48;9.77;;;18.50;99.90;;;;;;3607567;39;20091;-87
2021/06/24 18:49:40;;;;;;;11.95;7.30;;;18.40;99.90;;;;;;3604528;39;20147;-86
2021/06/24 18:52:13;;;;;;;12.32;7.28;;;18.40;99.90;;;;;;3595887;39;20083;-87
2021/06/24 18:54:41;;;;;;;9.93;6.55;;;18.20;99.90;;;;;;3600110;39;20096;-88
2021/06/24 18:57:09;;;;;;;11.73;7.13;;;18.10;99.90;;;;;;3608958;39;20057;-86
2021/06/24 18:59:38;;;;;;;11.02;7.35;;;18.00;99.90;;;;;;3600841;40;20100;-87
2021/06/24 19:02:10;;;;;;;12.95;7.68;;;18.10;99.90;;;;;;3590430;40;20075;-86
2021/06/24 19:04:43;;;;;;;9.98;6.60;;;18.00;99.90;;;;;;3592961;40;20092;-85
2021/06/24 19:07:14;;;;;;;12.27;7.18;;;17.90;99.90;;;;;;3593960;40;20077;-87
2021/06/24 19:09:45;;;;;;;10.13;6.93;;;17.90;99.90;;;;;;3593837;40;20065;-83
2021/06/24 19:12:17;;;;;;;14.45;8.88;;;17.80;99.90;;;;;;3581348;40;20542;-84
2021/06/24 19:14:45;;;;;;;11.73;7.05;;;17.90;99.90;;;;;;3587237;40;20068;-86
2021/06/24 19:17:19;;;;;;;11.15;6.95;;;17.90;99.90;;;;;;3588449;40;20084;-86
2021/06/24 19:19:50;;;;;;;13.38;7.05;;;17.90;99.90;;;;;;3580702;40;20084;-87
2021/06/24 19:22:21;;;;;;;10.00;7.30;;;17.90;99.90;;;;;;3597312;40;20061;-85
2021/06/24 19:24:50;;;;;;;10.93;7.30;;;17.90;99.90;;;;;;3591114;40;20069;-84
2021/06/24 19:27:18;;;;;;;12.13;7.38;;;18.00;99.90;;;;;;3591431;40;20060;-87
2021/06/24 19:29:46;;;;;;;16.00;8.23;;;18.00;99.90;;;;;;3574175;40;20069;-85
2021/06/24 19:32:14;;;;;;;13.88;9.05;;;18.00;99.90;;;;;;3604094;40;20072;-84
2021/06/24 19:34:43;;;;;;;16.77;9.55;;;17.90;99.90;;;;;;3599095;40;20039;-85
2021/06/24 19:37:13;;;;;;;13.85;9.18;;;17.90;99.90;;;;;;3589568;40;20403;-83
2021/06/24 19:39:41;;;;;;;14.35;9.23;;;17.90;99.90;;;;;;3591330;40;20073;-84
2021/06/24 19:42:10;;;;;;;13.10;9.25;;;17.80;99.90;;;;;;3591712;40;20096;-84
2021/06/24 19:44:40;;;;;;;13.57;9.10;;;17.80;99.90;;;;;;3597359;40;20073;-84
2021/06/24 19:47:10;;;;;;;15.35;9.93;;;17.70;99.90;;;;;;3588009;40;20045;-84
2021/06/24 19:49:42;;;;;;;14.88;10.02;;;17.70;99.90;;;;;;3593899;40;20036;-84
2021/06/24 19:52:12;;;;;;;16.02;10.77;;;17.70;99.90;;;;;;3592073;40;20057;-84
2021/06/24 19:54:41;;;;;;;17.45;11.73;;;17.70;99.90;;;;;;3579422;40;20088;-84
2021/06/24 19:57:09;;;;;;;15.82;10.77;;;17.70;99.90;;;;;;3575059;40;20092;-84
2021/06/24 19:59:37;;;;;;;15.05;9.65;;;17.70;99.90;;;;;;3591638;40;20076;-84
2021/06/24 20:02:05;;;;;;;16.80;11.25;;;17.60;99.90;;;;;;3590429;40;20088;-85
2021/06/24 20:04:34;;;;;;;14.47;10.13;;;17.50;99.90;;;;;;3574798;40;20064;-86
2021/06/24 20:07:01;;;;;;;;;;;17.50;99.90;;;;;;3593444;40;20092;-86
2021/06/24 20:09:32;;;;;;;17.70;11.13;;;17.50;99.90;;;;;;3584028;40;19968;-85
2021/06/24 20:12:01;;;;;;;13.30;10.30;;;17.60;99.90;;;;;;3592308;40;20598;-84
2021/06/24 20:14:32;;;;;;;19.90;12.45;;;17.50;99.90;;;;;;3593155;40;20080;-83
2021/06/24 20:17:06;;;;;;;17.05;11.65;;;17.60;99.90;;;;;;3583896;40;20279;-83
2021/06/24 20:19:33;;;;;;;20.30;12.55;;;17.50;99.90;;;;;;3591032;40;20092;-85
2021/06/24 20:22:01;;;;;;;17.48;11.23;;;17.60;99.90;;;;;;3583187;40;20072;-84
2021/06/24 20:24:35;;;;;;;20.98;14.13;;;17.60;99.90;;;;;;3582812;40;20132;-85
2021/06/24 20:27:03;;;;;;;24.48;13.30;;;17.60;99.90;;;;;;3584815;40;20093;-86
2021/06/24 20:29:32;;;;;;;17.35;12.35;;;17.60;99.90;;;;;;3596702;40;20061;-84
2021/06/24 20:31:59;;;;;;;;;;;17.60;99.90;;;;;;3592197;40;20040;-84
2021/06/24 20:34:27;;;;;;;16.65;11.45;;;17.60;99.90;;;;;;3593874;39;19936;-84
2021/06/24 20:36:58;;;;;;;18.00;12.30;;;17.60;99.90;;;;;;3596874;40;20286;-84
2021/06/24 20:39:28;;;;;;;22.45;13.38;;;17.60;99.90;;;;;;3586842;40;20072;-84
2021/06/24 20:41:58;;;;;;;18.65;13.35;;;17.60;99.90;;;;;;3583685;40;20072;-84
2021/06/24 20:44:29;;;;;;;26.45;15.68;;;17.50;99.90;;;;;;3593612;40;20080;-86
2021/06/24 20:46:59;;;;;;;19.05;12.73;;;17.60;99.90;;;;;;3596901;40;20299;-84
2021/06/24 20:49:30;;;;;;;21.30;13.93;;;17.60;99.90;;;;;;3590014;40;20060;-85
2021/06/24 20:52:00;;;;;;;19.83;13.95;;;17.60;99.90;;;;;;3594790;40;20056;-84
2021/06/24 20:54:28;;;;;;;22.67;13.85;;;17.60;99.90;;;;;;3595872;40;20065;-86
2021/06/24 20:57:03;;;;;;;22.95;14.23;;;17.60;99.90;;;;;;3586680;40;20068;-83
2021/06/24 20:59:31;;;;;;;22.13;13.98;;;17.60;99.90;;;;;;3598593;40;20089;-84
2021/06/24 21:02:01;;;;;;;20.80;14.30;;;17.60;99.90;;;;;;3590832;40;20073;-84
2021/06/24 21:04:31;;;;;;;19.33;14.52;;;17.60;99.90;;;;;;3602601;39;20075;-83
2021/06/24 21:06:59;;;;;;;22.10;15.02;;;17.60;99.90;;;;;;3600134;40;20056;-85
2021/06/24 21:09:27;;;;;;;21.45;14.55;;;17.50;99.90;;;;;;3601698;40;20091;-86
2021/06/24 21:11:55;;;;;;;23.65;13.63;;;17.50;99.90;;;;;;3604482;40;20068;-84
2021/06/24 21:14:27;;;;;;;24.60;14.90;;;17.50;99.90;;;;;;3593605;40;20069;-83
2021/06/24 21:16:54;;;;;;;22.35;15.85;;;17.50;99.90;;;;;;3594823;39;20080;-84
2021/06/24 21:19:22;;;;;;;22.77;15.02;;;17.50;99.90;;;;;;3601122;39;20088;-84
2021/06/24 21:21:50;;;;;;;21.02;15.05;;;17.50;99.90;;;;;;3600816;39;20088;-85
2021/06/24 21:24:18;;;;;;;18.67;13.73;;;17.40;99.90;;;;;;3601510;40;20067;-84
2021/06/24 21:26:46;;;;;;;24.52;16.05;;;17.40;99.90;;;;;;3592425;40;20406;-84
2021/06/24 21:29:14;;;;;;;20.77;13.50;;;17.40;99.90;;;;;;3592667;40;20091;-83
2021/06/24 21:31:45;;;;;;;24.00;14.45;;;17.40;99.90;;;;;;3591306;40;20395;-81
2021/06/24 21:34:14;;;;;;;22.58;14.35;;;17.40;99.90;;;;;;3592063;40;20060;-85
2021/06/24 21:36:42;;;;;;;25.70;15.40;;;17.40;99.90;;;;;;3591843;40;20072;-83
2021/06/24 21:39:12;;;;;;;20.50;15.23;;;17.50;99.90;;;;;;3592736;40;20084;-84
2021/06/24 21:41:40;;;;;;;20.27;14.50;;;17.50;99.90;;;;;;3591231;40;20092;-86
2021/06/24 21:44:08;;;;;;;21.92;14.20;;;17.50;99.90;;;;;;3600348;40;20732;-84
2021/06/24 21:46:37;;;;;;;24.77;14.65;;;17.50;99.90;;;;;;3599612;40;20092;-83
2021/06/24 21:49:06;;;;;;;21.38;14.65;;;17.40;99.90;;;;;;3600413;40;20092;-84
2021/06/24 21:51:34;;;;;;;22.27;14.20;;;17.40;99.90;;;;;;3599654;40;20096;-86
2021/06/24 21:54:02;;;;;;;24.23;15.20;;;17.30;99.90;;;;;;3596193;40;20107;-84
2021/06/24 21:56:30;;;;;;;20.77;13.77;;;17.30;99.90;;;;;;3599225;40;20731;-83
2021/06/24 21:58:58;;;;;;;19.63;12.82;;;17.30;99.90;;;;;;3589259;40;20064;-85
2021/06/24 22:01:27;;;;;;;22.58;13.63;;;17.30;99.90;;;;;;3581746;40;20072;-83
2021/06/24 22:03:54;;;;;;;17.85;14.13;;;17.30;99.90;;;;;;3583997;40;20088;-86
2021/06/24 22:06:23;;;;;;;20.05;13.52;;;17.20;99.90;;;;;;3593305;40;20080;-83
2021/06/24 22:08:57;;;;;;;21.73;13.35;;;17.20;99.90;;;;;;3595300;40;20060;-84
2021/06/24 22:11:26;;;;;;;17.45;12.88;;;17.20;99.90;;;;;;3590636;40;20077;-85
2021/06/24 22:13:56;;;;;;;21.13;13.02;;;17.20;99.90;;;;;;3592466;40;20084;-82
2021/06/24 22:16:28;;;;;;;16.70;12.45;;;17.20;99.90;;;;;;3587061;40;20418;-84
2021/06/24 22:18:56;;;;;;;18.40;12.60;;;17.20;99.90;;;;;;3580309;40;20080;-83
2021/06/24 22:21:26;;;;;;;20.13;13.47;;;17.20;99.90;;;;;;3585309;40;20065;-84
2021/06/24 22:23:56;;;;;;;18.70;12.00;;;17.20;99.90;;;;;;3598459;40;20357;-84
2021/06/24 22:26:23;;;;;;;19.95;12.10;;;17.20;99.90;;;;;;3583196;40;20057;-85
2021/06/24 22:28:51;;;;;;;19.00;12.88;;;17.20;99.90;;;;;;3587550;40;20302;-83
2021/06/24 22:31:20;;;;;;;22.80;13.43;;;17.20;99.90;;;;;;3587340;40;20408;-84
2021/06/24 22:33:48;;;;;;;18.25;13.02;;;17.30;99.90;;;;;;3595859;40;20088;-83
2021/06/24 22:36:18;;;;;;;20.52;12.65;;;17.30;99.90;;;;;;3591925;40;20088;-83
2021/06/24 22:38:47;;;;;;;19.87;11.97;;;17.30;99.90;;;;;;3592140;40;20068;-82
2021/06/24 22:41:15;;;;;;;22.38;13.63;;;17.30;99.90;;;;;;3594753;40;20307;-86
2021/06/24 22:43:43;;;;;;;15.80;11.43;;;17.30;99.90;;;;;;3594342;40;20077;-82
2021/06/24 22:46:11;;;;;;;21.95;13.38;;;17.30;99.90;;;;;;3576617;40;20397;-85
2021/06/24 22:48:39;;;;;;;22.98;13.43;;;17.40;99.90;;;;;;3594146;40;20403;-83
2021/06/24 22:51:06;;;;;;;26.13;15.03;;;17.40;99.90;;;;;;3585801;40;20080;-85
2021/06/24 22:53:34;;;;;;;22.80;13.70;;;17.40;99.90;;;;;;3585457;40;20084;-87
2021/06/24 22:56:04;;;;;;;20.45;13.02;;;17.40;99.90;;;;;;3574091;40;20072;-83
2021/06/24 22:58:31;;;;;;;17.92;12.23;;;17.40;99.90;;;;;;3585664;40;20065;-84
2021/06/24 23:00:59;;;;;;;21.08;12.45;;;17.40;99.90;;;;;;3600414;39;20102;-82
2021/06/24 23:03:27;;;;;;;18.10;12.37;;;17.40;99.90;;;;;;3592025;39;20297;-84
2021/06/24 23:05:54;;;;;;;18.23;12.20;;;17.40;99.90;;;;;;3601165;39;20083;-83
2021/06/24 23:08:23;;;;;;;18.80;11.25;;;17.40;99.90;;;;;;3600778;39;20071;-86
2021/06/24 23:10:51;;;;;;;15.82;10.90;;;17.40;99.90;;;;;;3592719;39;20095;-85
2021/06/24 23:13:19;;;;;;;17.87;12.10;;;17.40;99.90;;;;;;3601198;39;20071;-84
2021/06/24 23:15:47;;;;;;;17.52;11.77;;;17.40;99.90;;;;;;3612006;39;20380;-82
2021/06/24 23:18:15;;;;;;;20.92;12.82;;;17.40;99.90;;;;;;3608615;39;20075;-86
2021/06/24 23:20:43;;;;;;;18.27;12.90;;;17.40;99.90;;;;;;3608865;39;20036;-83
2021/06/24 23:23:12;;;;;;;22.92;14.77;;;17.50;99.90;;;;;;3602119;39;20042;-84
2021/06/24 23:25:40;;;;;;;26.00;13.85;;;17.50;99.90;;;;;;3605575;39;20079;-84
2021/06/24 23:28:08;;;;;;;23.05;14.10;;;17.50;99.90;;;;;;3590934;40;20286;-85
2021/06/24 23:30:37;;;;;;;23.08;13.63;;;17.50;99.90;;;;;;3587713;39;20092;-85
2021/06/24 23:33:07;;;;;;;21.90;14.27;;;17.40;99.90;;;;;;3592834;39;20092;-83
2021/06/24 23:35:37;;;;;;;17.88;13.57;;;17.40;99.90;;;;;;3600582;39;20084;-84
2021/06/24 23:38:04;;;;;;;25.02;15.52;;;17.30;99.90;;;;;;3600765;39;20083;-84
2021/06/24 23:40:32;;;;;;;19.40;14.40;;;17.30;99.90;;;;;;3611151;39;20381;-84
2021/06/24 23:43:02;;;;;;;23.42;15.75;;;17.30;99.90;;;;;;3595394;39;20068;-86
2021/06/24 23:45:30;;;;;;;23.30;14.35;;;17.20;99.90;;;;;;3603410;39;20068;-86